createdAt,value
2023-04-07T00:00:28.385Z,12.77
2023-04-07T00:02:55.960Z,11.10
2023-04-07T00:05:22.625Z,14.05
2023-04-07T00:07:56.545Z,14.15
2023-04-07T00:10:25.049Z,12.85
2023-04-07T00:12:51.542Z,13.35
2023-04-07T00:15:18.096Z,12.10
2023-04-07T00:17:44.673Z,12.25
2023-04-07T00:20:12.114Z,14.35
2023-04-07T00:22:38.641Z,12.10
2023-04-07T00:25:05.606Z,11.77
2023-04-07T00:27:32.401Z,11.27
2023-04-07T00:29:58.912Z,10.85
2023-04-07T00:32:25.505Z,12.13
2023-04-07T00:34:52.000Z,11.63
2023-04-07T00:37:19.375Z,10.43
2023-04-07T00:39:46.816Z,11.23
2023-04-07T00:42:13.576Z,11.48
2023-04-07T00:44:40.360Z,11.38
2023-04-07T00:47:06.794Z,11.30
2023-04-07T00:49:33.256Z,12.45
2023-04-07T00:51:59.707Z,13.10
2023-04-07T00:54:26.324Z,12.05
2023-04-07T00:56:53.490Z,12.98
2023-04-07T00:59:20.613Z,11.10
2023-04-07T01:02:22.124Z,10.68
2023-04-07T01:04:56.175Z,10.45
2023-04-07T01:07:35.474Z,11.13
2023-04-07T01:10:06.828Z,10.38
2023-04-07T01:12:45.645Z,12.63
2023-04-07T01:15:12.700Z,12.43
2023-04-07T01:17:56.507Z,13.55
2023-04-07T01:20:23.384Z,11.13
2023-04-07T01:22:54.472Z,13.30
2023-04-07T01:25:52.694Z,11.82
2023-04-07T01:28:43.926Z,12.20
2023-04-07T01:31:12.670Z,12.73
2023-04-07T01:33:40.038Z,12.57
2023-04-07T01:36:07.138Z,12.85
2023-04-07T01:38:33.774Z,11.98
2023-04-07T01:41:00.706Z,11.60
2023-04-07T01:43:28.560Z,13.23
2023-04-07T01:45:56.146Z,14.43
2023-04-07T01:48:23.665Z,12.73
2023-04-07T01:50:50.680Z,11.82
2023-04-07T01:53:17.375Z,12.95
2023-04-07T01:55:44.008Z,10.65
2023-04-07T01:58:10.470Z,11.57
2023-04-07T02:00:36.953Z,11.40
2023-04-07T02:03:24.424Z,11.77
2023-04-07T02:05:55.946Z,11.18
2023-04-07T02:08:23.357Z,12.55
2023-04-07T02:10:51.096Z,12.95
2023-04-07T02:13:19.294Z,12.20
2023-04-07T02:15:46.179Z,14.18
2023-04-07T02:18:13.727Z,13.27
2023-04-07T02:20:41.515Z,12.43
2023-04-07T02:23:11.034Z,11.68
2023-04-07T02:25:40.354Z,12.50
2023-04-07T02:28:07.182Z,10.70
2023-04-07T02:30:34.280Z,13.98
2023-04-07T02:33:00.819Z,14.07
2023-04-07T02:35:27.318Z,12.70
2023-04-07T02:37:53.841Z,14.75
2023-04-07T02:40:20.395Z,14.60
2023-04-07T02:42:46.873Z,15.98
2023-04-07T02:45:13.388Z,14.48
2023-04-07T02:47:40.298Z,13.05
2023-04-07T02:50:07.171Z,14.27
2023-04-07T02:52:33.667Z,13.60
2023-04-07T02:55:01.037Z,14.88
2023-04-07T02:57:27.435Z,13.48
2023-04-07T02:59:56.010Z,14.95
2023-04-07T03:02:22.568Z,15.13
2023-04-07T03:04:51.552Z,14.45
2023-04-07T03:07:17.988Z,15.57
2023-04-07T03:09:44.614Z,14.65
2023-04-07T03:12:11.177Z,13.55
2023-04-07T03:14:37.596Z,15.80
2023-04-07T03:17:04.562Z,15.35
2023-04-07T03:19:31.126Z,14.60
2023-04-07T03:21:57.584Z,15.15
2023-04-07T03:24:24.064Z,14.45
2023-04-07T03:26:51.559Z,14.25
2023-04-07T03:29:19.334Z,16.77
2023-04-07T03:31:46.580Z,17.23
2023-04-07T03:34:13.240Z,14.18
2023-04-07T03:36:39.629Z,17.20
2023-04-07T03:39:06.644Z,17.25
2023-04-07T03:41:33.211Z,15.77
2023-04-07T03:43:59.665Z,16.63
2023-04-07T03:46:27.149Z,17.35
2023-04-07T03:48:54.170Z,18.75
2023-04-07T03:51:20.850Z,17.30
2023-04-07T03:53:47.284Z,17.63
2023-04-07T03:56:13.781Z,18.67
2023-04-07T03:58:42.707Z,16.48
2023-04-07T04:01:09.300Z,16.23
2023-04-07T04:03:35.939Z,16.30
2023-04-07T04:06:02.517Z,17.10
2023-04-07T04:08:29.367Z,15.15
2023-04-07T04:10:55.903Z,17.10
2023-04-07T04:13:22.386Z,15.20
2023-04-07T04:15:48.830Z,16.98
2023-04-07T04:18:15.580Z,17.45
2023-04-07T04:20:42.952Z,18.10
2023-04-07T04:23:09.401Z,17.50
2023-04-07T04:25:36.096Z,16.00
2023-04-07T04:28:02.596Z,16.65
2023-04-07T04:30:29.178Z,19.85
2023-04-07T04:32:55.748Z,16.35
2023-04-07T04:35:22.317Z,16.15
2023-04-07T04:37:48.937Z,15.95
2023-04-07T04:40:15.384Z,16.15
2023-04-07T04:42:41.885Z,17.42
2023-04-07T04:45:08.821Z,14.93
2023-04-07T04:47:35.378Z,17.20
2023-04-07T04:50:01.917Z,16.75
2023-04-07T04:52:28.914Z,16.60
2023-04-07T04:54:55.622Z,17.40
2023-04-07T04:57:22.083Z,17.77
2023-04-07T04:59:48.937Z,21.38
2023-04-07T05:02:15.564Z,19.42
2023-04-07T05:04:42.222Z,18.17
2023-04-07T05:07:08.788Z,20.25
2023-04-07T05:09:35.328Z,17.75
2023-04-07T05:12:02.669Z,17.38
2023-04-07T05:14:29.148Z,18.30
2023-04-07T05:16:55.616Z,17.80
2023-04-07T05:19:22.103Z,18.20
2023-04-07T05:21:48.550Z,17.88
2023-04-07T05:24:15.044Z,17.88
2023-04-07T05:26:41.642Z,17.50
2023-04-07T05:29:08.112Z,16.77
2023-04-07T05:31:37.460Z,16.35
2023-04-07T05:34:04.047Z,16.08
2023-04-07T05:36:31.664Z,16.10
2023-04-07T05:38:58.319Z,15.48
2023-04-07T05:41:24.825Z,15.02
2023-04-07T05:43:51.589Z,14.38
2023-04-07T05:46:18.493Z,15.32
2023-04-07T05:48:45.442Z,16.05
2023-04-07T05:51:11.831Z,16.67
2023-04-07T05:53:38.329Z,17.52
2023-04-07T05:56:04.852Z,14.43
2023-04-07T05:58:31.290Z,13.95
2023-04-07T06:00:57.806Z,14.93
2023-04-07T06:03:24.379Z,15.00
2023-04-07T06:05:51.090Z,14.00
2023-04-07T06:08:17.636Z,15.48
2023-04-07T06:10:44.726Z,12.93
2023-04-07T06:13:11.385Z,14.70
2023-04-07T06:15:37.784Z,12.50
2023-04-07T06:18:04.521Z,12.68
2023-04-07T06:20:31.251Z,12.57
2023-04-07T06:22:57.691Z,13.60
2023-04-07T06:25:24.258Z,12.32
2023-04-07T06:27:50.927Z,13.98
2023-04-07T06:30:17.359Z,12.30
2023-04-07T06:32:43.962Z,12.95
2023-04-07T06:35:10.589Z,11.60
2023-04-07T06:37:37.370Z,11.68
2023-04-07T06:40:04.213Z,11.65
2023-04-07T06:42:30.849Z,10.15
2023-04-07T06:44:57.424Z,13.23
2023-04-07T06:47:24.271Z,12.40
2023-04-07T06:49:51.179Z,10.82
2023-04-07T06:52:17.656Z,10.15
2023-04-07T06:54:44.419Z,11.40
2023-04-07T06:57:12.299Z,11.60
2023-04-07T06:59:39.075Z,10.48
2023-04-07T07:02:07.579Z,11.80
2023-04-07T07:04:34.918Z,11.18
2023-04-07T07:07:01.513Z,10.13
2023-04-07T07:09:27.990Z,10.20
2023-04-07T07:11:54.491Z,9.82
2023-04-07T07:14:21.251Z,9.73
2023-04-07T07:16:47.632Z,10.18
2023-04-07T07:19:15.103Z,9.13
2023-04-07T07:21:41.616Z,9.43
2023-04-07T07:24:08.349Z,8.15
2023-04-07T07:26:34.969Z,9.02
2023-04-07T07:29:01.460Z,8.20
2023-04-07T07:31:28.094Z,8.23
2023-04-07T07:33:54.768Z,7.50
2023-04-07T07:36:21.316Z,6.60
2023-04-07T07:38:50.631Z,6.43
2023-04-07T07:41:17.170Z,7.15
2023-04-07T07:43:43.704Z,6.35
2023-04-07T07:46:10.300Z,6.65
2023-04-07T07:48:36.929Z,6.60
2023-04-07T07:51:03.694Z,6.53
2023-04-07T07:53:30.098Z,7.70
2023-04-07T07:55:56.781Z,6.60
2023-04-07T07:58:23.286Z,6.38
2023-04-07T08:00:49.817Z,5.78
2023-04-07T08:03:16.805Z,6.20
2023-04-07T08:05:44.332Z,6.80
2023-04-07T08:08:14.026Z,5.38
2023-04-07T08:10:40.502Z,8.85
2023-04-07T08:13:07.169Z,6.28
2023-04-07T08:15:33.671Z,6.03
2023-04-07T08:18:00.745Z,5.57
2023-04-07T08:20:27.827Z,7.07
2023-04-07T08:22:54.325Z,6.32
2023-04-07T08:25:21.033Z,9.15
2023-04-07T08:27:47.524Z,5.97
2023-04-07T08:30:14.330Z,6.68
2023-04-07T08:32:42.769Z,5.88
2023-04-07T08:35:09.317Z,6.43
2023-04-07T08:37:36.191Z,6.97
2023-04-07T08:40:04.017Z,5.90
2023-04-07T08:42:32.937Z,7.13
2023-04-07T08:45:05.132Z,6.00
2023-04-07T08:47:35.654Z,6.97
2023-04-07T08:50:07.103Z,5.93
2023-04-07T08:52:50.733Z,5.65
2023-04-07T08:55:17.283Z,6.07
2023-04-07T08:57:44.196Z,6.82
2023-04-07T09:00:11.225Z,7.22
2023-04-07T09:02:39.663Z,7.15
2023-04-07T09:05:08.339Z,6.68
2023-04-07T09:07:38.111Z,7.65
2023-04-07T09:10:05.110Z,7.70
2023-04-07T09:12:34.405Z,7.53
2023-04-07T09:15:01.103Z,7.80
2023-04-07T09:17:29.122Z,7.78
2023-04-07T09:20:00.168Z,7.55
2023-04-07T09:22:42.458Z,7.88
2023-04-07T09:25:16.961Z,7.55
2023-04-07T09:28:04.081Z,7.47
2023-04-07T09:30:32.045Z,8.50
2023-04-07T09:32:59.708Z,7.75
2023-04-07T09:35:28.369Z,7.63
2023-04-07T09:38:06.279Z,8.57
2023-04-07T09:40:32.815Z,8.20
2023-04-07T09:42:59.601Z,7.57
2023-04-07T09:45:34.609Z,10.13
2023-04-07T09:48:06.966Z,9.13
2023-04-07T09:50:35.469Z,8.13
2023-04-07T09:53:03.334Z,7.95
2023-04-07T09:55:30.523Z,11.52
2023-04-07T09:57:57.210Z,10.90
2023-04-07T10:00:24.316Z,9.07
2023-04-07T10:02:51.494Z,8.75
2023-04-07T10:05:18.121Z,9.13
2023-04-07T10:07:44.616Z,9.52
2023-04-07T10:10:11.444Z,7.80
2023-04-07T10:12:38.252Z,9.10
2023-04-07T10:15:05.330Z,9.88
2023-04-07T10:17:32.556Z,10.75
2023-04-07T10:19:59.695Z,8.70
2023-04-07T10:22:27.827Z,9.45
2023-04-07T10:24:57.471Z,9.13
2023-04-07T10:27:33.332Z,8.98
2023-04-07T10:30:00.485Z,9.07
2023-04-07T10:32:27.305Z,9.85
2023-04-07T10:34:54.467Z,10.27
2023-04-07T10:37:22.415Z,9.95
2023-04-07T10:39:51.157Z,9.70
2023-04-07T10:42:39.491Z,9.40
2023-04-07T10:45:10.442Z,9.88
2023-04-07T10:47:58.863Z,9.98
2023-04-07T10:50:25.830Z,12.57
2023-04-07T10:53:09.570Z,10.10
2023-04-07T10:55:39.341Z,11.77
2023-04-07T10:58:25.392Z,11.48
2023-04-07T11:01:06.724Z,11.38
2023-04-07T11:03:52.736Z,10.48
2023-04-07T11:06:19.330Z,9.73
2023-04-07T11:08:49.361Z,13.32
2023-04-07T11:11:37.490Z,10.70
2023-04-07T11:14:04.315Z,10.48
2023-04-07T11:16:42.302Z,12.90
2023-04-07T11:19:09.375Z,14.55
2023-04-07T11:21:36.918Z,12.35
2023-04-07T11:24:03.651Z,11.38
2023-04-07T11:26:30.435Z,10.27
2023-04-07T11:28:58.845Z,10.65
2023-04-07T11:31:26.879Z,12.35
2023-04-07T11:33:55.128Z,12.30
2023-04-07T11:36:38.819Z,11.90
2023-04-07T11:39:05.369Z,12.43
2023-04-07T11:41:33.125Z,10.93
2023-04-07T11:44:10.451Z,11.18
2023-04-07T11:46:38.078Z,12.70
2023-04-07T11:49:14.575Z,12.40
2023-04-07T11:51:44.127Z,11.40
2023-04-07T11:54:11.373Z,14.38
2023-04-07T11:56:45.775Z,13.82
2023-04-07T11:59:20.951Z,11.70
2023-04-07T12:01:48.234Z,10.88
2023-04-07T12:04:17.955Z,12.98
2023-04-07T12:06:46.640Z,11.52
2023-04-07T12:09:34.778Z,10.93
2023-04-07T12:12:02.173Z,13.77
2023-04-07T12:14:28.979Z,10.25
2023-04-07T12:16:56.974Z,10.60
2023-04-07T12:19:24.295Z,10.77
2023-04-07T12:21:50.794Z,10.90
2023-04-07T12:24:17.826Z,10.45
2023-04-07T12:26:44.927Z,10.63
2023-04-07T12:29:11.696Z,9.48
2023-04-07T12:31:38.178Z,12.25
2023-04-07T12:34:04.700Z,10.65
2023-04-07T12:36:31.210Z,10.13
2023-04-07T12:38:57.988Z,12.50
2023-04-07T12:41:25.230Z,10.63
2023-04-07T12:43:52.357Z,9.35
2023-04-07T12:46:19.633Z,11.27
2023-04-07T12:48:47.980Z,9.63
2023-04-07T12:51:15.187Z,9.30
2023-04-07T12:53:41.788Z,12.50
2023-04-07T12:56:08.279Z,11.13
2023-04-07T12:58:34.810Z,11.52
2023-04-07T13:01:01.291Z,9.88
2023-04-07T13:03:28.067Z,11.13
2023-04-07T13:05:55.433Z,11.32
2023-04-07T13:08:22.198Z,10.00
2023-04-07T13:10:48.762Z,9.60
2023-04-07T13:13:15.812Z,10.05
2023-04-07T13:15:42.324Z,11.00
2023-04-07T13:18:08.809Z,12.75
2023-04-07T13:20:35.330Z,12.80
2023-04-07T13:23:07.655Z,11.80
2023-04-07T13:25:36.510Z,12.88
2023-04-07T13:28:02.963Z,10.63
2023-04-07T13:30:29.488Z,14.02
2023-04-07T13:32:56.347Z,13.20
2023-04-07T13:35:22.892Z,11.73
2023-04-07T13:37:49.539Z,12.43
2023-04-07T13:40:16.070Z,13.70
2023-04-07T13:42:42.985Z,10.73
2023-04-07T13:45:09.797Z,11.68
2023-04-07T13:47:37.155Z,12.60
2023-04-07T13:50:04.451Z,9.52
2023-04-07T13:52:32.881Z,11.93
2023-04-07T13:54:59.512Z,10.27
2023-04-07T13:57:25.949Z,11.30
2023-04-07T13:59:52.452Z,10.48
2023-04-07T14:02:19.972Z,12.13
2023-04-07T14:04:46.900Z,10.90
2023-04-07T14:07:16.757Z,12.65
2023-04-07T14:09:46.492Z,12.98
2023-04-07T14:12:25.416Z,13.93
2023-04-07T14:15:01.995Z,13.40
2023-04-07T14:17:31.769Z,11.48
2023-04-07T14:19:59.814Z,10.18
2023-04-07T14:22:27.345Z,9.68
2023-04-07T14:24:58.126Z,12.10
2023-04-07T14:27:24.869Z,12.23
2023-04-07T14:29:51.410Z,12.75
2023-04-07T14:32:18.000Z,10.43
2023-04-07T14:34:47.439Z,10.73
2023-04-07T14:37:14.191Z,12.50
2023-04-07T14:39:45.895Z,11.63
2023-04-07T14:42:22.430Z,10.73
2023-04-07T14:44:52.114Z,10.50
2023-04-07T14:47:21.499Z,11.45
2023-04-07T14:49:50.029Z,12.13
2023-04-07T14:52:22.209Z,11.80
2023-04-07T14:54:49.007Z,14.32
2023-04-07T14:57:22.975Z,12.07
2023-04-07T14:59:50.097Z,10.85
2023-04-07T15:02:19.848Z,11.88
2023-04-07T15:04:46.893Z,10.68
2023-04-07T15:07:13.513Z,10.80
2023-04-07T15:09:39.973Z,10.43
2023-04-07T15:12:06.511Z,11.50
2023-04-07T15:14:35.034Z,9.93
2023-04-07T15:17:01.567Z,10.10
2023-04-07T15:19:28.099Z,10.65
2023-04-07T15:21:54.618Z,9.23
2023-04-07T15:24:22.219Z,8.27
2023-04-07T15:26:49.289Z,10.30
2023-04-07T15:29:15.718Z,10.70
2023-04-07T15:31:42.275Z,10.73
2023-04-07T15:34:08.738Z,10.85
2023-04-07T15:36:36.289Z,11.00
2023-04-07T15:39:04.470Z,9.07
2023-04-07T15:41:31.197Z,8.32
2023-04-07T15:43:59.578Z,14.60
2023-04-07T15:46:26.558Z,10.60
2023-04-07T15:48:53.067Z,10.23
2023-04-07T15:51:19.530Z,9.93
2023-04-07T15:53:46.005Z,11.00
2023-04-07T15:56:13.752Z,10.43
2023-04-07T15:58:40.470Z,11.80
2023-04-07T16:01:06.996Z,12.00
2023-04-07T16:03:33.917Z,12.50
2023-04-07T16:06:00.593Z,10.52
2023-04-07T16:08:27.105Z,12.95
2023-04-07T16:10:53.502Z,12.10
2023-04-07T16:13:20.018Z,13.13
2023-04-07T16:15:46.461Z,12.13
2023-04-07T16:18:12.897Z,12.73
2023-04-07T16:20:39.404Z,11.32
2023-04-07T16:23:05.908Z,9.63
2023-04-07T16:25:32.388Z,12.35
2023-04-07T16:27:58.988Z,12.70
2023-04-07T16:30:25.655Z,11.88
2023-04-07T16:32:52.296Z,11.63
2023-04-07T16:35:18.928Z,10.45
2023-04-07T16:37:49.951Z,10.38
2023-04-07T16:40:16.467Z,11.13
2023-04-07T16:42:42.958Z,10.35
2023-04-07T16:45:09.943Z,11.57
2023-04-07T16:47:37.829Z,9.57
2023-04-07T16:50:04.994Z,9.82
2023-04-07T16:52:31.780Z,12.43
2023-04-07T16:54:59.068Z,11.48
2023-04-07T16:57:25.623Z,10.93
2023-04-07T16:59:52.137Z,10.38
2023-04-07T17:02:18.823Z,10.18
2023-04-07T17:04:45.852Z,12.48
2023-04-07T17:07:12.398Z,10.07
2023-04-07T17:09:39.062Z,11.30
2023-04-07T17:12:06.259Z,10.68
2023-04-07T17:14:33.013Z,11.95
2023-04-07T17:16:59.442Z,11.65
2023-04-07T17:19:26.026Z,9.23
2023-04-07T17:21:52.535Z,9.43
2023-04-07T17:24:19.031Z,10.80
2023-04-07T17:26:49.015Z,11.95
2023-04-07T17:29:16.645Z,12.88
2023-04-07T17:31:43.310Z,10.57
2023-04-07T17:34:10.394Z,8.95
2023-04-07T17:36:37.776Z,10.15
2023-04-07T17:39:05.258Z,10.23
2023-04-07T17:41:34.487Z,11.80
2023-04-07T17:44:01.574Z,9.73
2023-04-07T17:46:28.174Z,9.73
2023-04-07T17:48:55.100Z,8.98
2023-04-07T17:51:21.732Z,12.75
2023-04-07T17:53:48.607Z,11.18
2023-04-07T17:56:15.451Z,13.95
2023-04-07T17:58:41.904Z,11.63
2023-04-07T18:01:11.620Z,11.38
2023-04-07T18:03:38.308Z,11.55
2023-04-07T18:06:05.429Z,9.95
2023-04-07T18:08:31.926Z,11.18
2023-04-07T18:10:58.500Z,9.02
2023-04-07T18:13:25.003Z,9.38
2023-04-07T18:15:52.229Z,9.23
2023-04-07T18:18:20.281Z,9.32
2023-04-07T18:20:46.725Z,12.20
2023-04-07T18:23:13.582Z,43.65
2023-04-07T18:25:40.079Z,16.98
2023-04-07T18:28:06.469Z,12.27
2023-04-07T18:30:33.233Z,10.93
2023-04-07T18:33:03.052Z,10.80
2023-04-07T18:35:29.689Z,9.95
2023-04-07T18:37:56.981Z,13.05
2023-04-07T18:40:23.593Z,11.40
2023-04-07T18:42:50.141Z,15.05
2023-04-07T18:45:16.733Z,9.75
2023-04-07T18:47:43.290Z,10.25
2023-04-07T18:50:09.846Z,8.43
2023-04-07T18:52:36.650Z,10.63
2023-04-07T18:55:04.000Z,8.77
2023-04-07T18:57:30.421Z,11.63
2023-04-07T18:59:56.851Z,9.90
2023-04-07T19:02:23.428Z,9.73
2023-04-07T19:04:49.877Z,9.75
2023-04-07T19:07:16.544Z,10.82
2023-04-07T19:09:42.948Z,8.30
2023-04-07T19:12:09.470Z,9.15
2023-04-07T19:14:36.183Z,8.80
2023-04-07T19:17:02.684Z,9.77
2023-04-07T19:19:30.255Z,10.48
2023-04-07T19:21:56.675Z,8.23
2023-04-07T19:24:23.236Z,8.82
2023-04-07T19:26:49.763Z,9.13
2023-04-07T19:29:16.386Z,7.95
2023-04-07T19:31:42.876Z,9.75
2023-04-07T19:34:09.446Z,7.80
2023-04-07T19:36:36.031Z,9.13
2023-04-07T19:39:04.710Z,9.48
2023-04-07T19:41:31.417Z,8.40
2023-04-07T19:43:57.851Z,8.35
2023-04-07T19:46:24.570Z,8.02
2023-04-07T19:48:51.451Z,8.05
2023-04-07T19:51:17.889Z,8.60
2023-04-07T19:53:44.268Z,7.57
2023-04-07T19:56:11.277Z,10.10
2023-04-07T19:58:38.464Z,9.13
2023-04-07T20:01:05.044Z,7.60
2023-04-07T20:03:32.073Z,8.00
2023-04-07T20:05:59.629Z,8.85
2023-04-07T20:08:26.246Z,9.77
2023-04-07T20:10:53.079Z,9.05
2023-04-07T20:13:20.257Z,9.52
2023-04-07T20:15:47.259Z,9.68
2023-04-07T20:18:13.805Z,8.13
2023-04-07T20:20:40.268Z,11.40
2023-04-07T20:23:06.759Z,11.77
2023-04-07T20:25:34.765Z,10.65
2023-04-07T20:28:01.157Z,10.98
2023-04-07T20:30:27.722Z,12.65
2023-04-07T20:32:54.241Z,10.00
2023-04-07T20:35:20.749Z,10.85
2023-04-07T20:37:47.250Z,11.00
2023-04-07T20:40:13.699Z,9.15
2023-04-07T20:42:40.241Z,10.30
2023-04-07T20:45:07.686Z,9.13
2023-04-07T20:47:36.539Z,10.55
2023-04-07T20:50:03.294Z,9.30
2023-04-07T20:52:29.865Z,9.70
2023-04-07T20:54:56.558Z,7.78
2023-04-07T20:57:23.035Z,8.07
2023-04-07T20:59:49.664Z,6.78
2023-04-07T21:02:16.360Z,9.55
2023-04-07T21:04:42.899Z,9.20
2023-04-07T21:07:10.453Z,7.28
2023-04-07T21:09:36.898Z,8.93
2023-04-07T21:12:04.314Z,8.52
2023-04-07T21:14:31.830Z,11.73
2023-04-07T21:16:58.663Z,7.30
2023-04-07T21:19:25.269Z,7.28
2023-04-07T21:21:51.743Z,7.13
2023-04-07T21:24:18.196Z,8.82
2023-04-07T21:26:44.692Z,8.00
2023-04-07T21:29:11.369Z,9.27
2023-04-07T21:31:38.009Z,8.80
2023-04-07T21:34:04.832Z,8.55
2023-04-07T21:36:31.968Z,8.90
2023-04-07T21:38:58.700Z,10.15
2023-04-07T21:41:25.454Z,11.98
2023-04-07T21:43:52.011Z,8.70
2023-04-07T21:46:19.032Z,9.35
2023-04-07T21:48:45.635Z,9.50
2023-04-07T21:51:12.085Z,10.30
2023-04-07T21:53:38.466Z,9.63
2023-04-07T21:56:05.199Z,8.98
2023-04-07T21:58:31.614Z,9.55
2023-04-07T22:00:58.177Z,10.52
2023-04-07T22:03:24.685Z,11.70
2023-04-07T22:05:51.573Z,9.13
2023-04-07T22:08:18.125Z,8.73
2023-04-07T22:10:44.739Z,8.00
2023-04-07T22:13:11.186Z,11.43
2023-04-07T22:15:37.604Z,9.32
2023-04-07T22:18:04.867Z,9.15
2023-04-07T22:20:31.490Z,8.68
2023-04-07T22:22:58.146Z,8.48
2023-04-07T22:25:25.385Z,7.40
2023-04-07T22:27:52.653Z,7.15
2023-04-07T22:30:19.775Z,7.68
2023-04-07T22:32:46.412Z,8.40
2023-04-07T22:35:13.021Z,7.88
2023-04-07T22:37:39.434Z,7.97
2023-04-07T22:40:06.502Z,7.93
2023-04-07T22:42:32.957Z,7.53
2023-04-07T22:44:59.430Z,6.93
2023-04-07T22:47:25.986Z,6.60
2023-04-07T22:49:52.473Z,9.48
2023-04-07T22:52:18.886Z,5.90
2023-04-07T22:54:45.369Z,7.22
2023-04-07T22:57:11.816Z,6.47
2023-04-07T22:59:38.302Z,6.10
2023-04-07T23:02:04.849Z,5.45
2023-04-07T23:04:31.290Z,5.90
2023-04-07T23:06:57.802Z,6.47
2023-04-07T23:09:24.232Z,5.35
2023-04-07T23:11:50.670Z,5.88
2023-04-07T23:14:17.153Z,5.57
2023-04-07T23:16:43.752Z,6.65
2023-04-07T23:19:15.591Z,4.65
2023-04-07T23:21:42.988Z,6.32
2023-04-07T23:24:09.708Z,5.38
2023-04-07T23:26:36.121Z,5.65
2023-04-07T23:29:03.267Z,6.20
2023-04-07T23:31:29.809Z,6.10
2023-04-07T23:33:58.299Z,5.38
2023-04-07T23:36:24.857Z,5.93
2023-04-07T23:38:51.572Z,4.88
2023-04-07T23:41:18.377Z,5.72
2023-04-07T23:43:44.961Z,5.32
2023-04-07T23:46:11.426Z,4.72
2023-04-07T23:48:37.920Z,6.40
2023-04-07T23:51:04.411Z,5.30
2023-04-07T23:53:30.888Z,5.15
2023-04-07T23:55:57.553Z,6.65
2023-04-07T23:58:24.024Z,4.80
